createdAt,value
2017-12-11T00:00:18.972Z,97625.64
2017-12-11T00:02:44.749Z,97610.20
2017-12-11T00:05:10.579Z,97621.06
2017-12-11T00:07:36.388Z,97636.20
2017-12-11T00:10:02.168Z,97632.55
2017-12-11T00:12:27.975Z,97628.30
2017-12-11T00:14:53.756Z,97624.01
2017-12-11T00:17:19.695Z,97620.47
2017-12-11T00:19:45.482Z,97615.58
2017-12-11T00:22:11.257Z,97620.72
2017-12-11T00:24:37.032Z,97610.52
2017-12-11T00:27:02.810Z,97610.39
2017-12-11T00:29:28.671Z,97615.09
2017-12-11T00:31:54.453Z,97603.86
2017-12-11T00:34:20.231Z,97607.22
2017-12-11T00:36:46.007Z,97613.44
2017-12-11T00:39:11.782Z,97613.02
2017-12-11T00:41:37.671Z,97612.66
2017-12-11T00:44:03.457Z,97609.82
2017-12-11T00:46:29.247Z,97610.84
2017-12-11T00:48:55.036Z,97612.98
2017-12-11T00:51:20.808Z,97615.36
2017-12-11T00:53:46.771Z,97609.89
2017-12-11T00:56:12.549Z,97607.87
2017-12-11T00:58:38.323Z,97619.00
2017-12-11T01:01:04.103Z,97629.53
2017-12-11T01:03:29.916Z,97622.72
2017-12-11T01:05:55.771Z,97620.48
2017-12-11T01:08:21.583Z,97632.30
2017-12-11T01:10:47.363Z,97621.28
2017-12-11T01:13:13.175Z,97620.63
2017-12-11T01:15:38.956Z,97620.94
2017-12-11T01:18:04.795Z,97626.91
2017-12-11T01:20:30.708Z,97628.88
2017-12-11T01:22:56.522Z,97628.23
2017-12-11T01:25:22.300Z,97628.52
2017-12-11T01:27:48.103Z,97623.22
2017-12-11T01:30:13.924Z,97624.22
2017-12-11T01:32:39.708Z,97627.12
2017-12-11T01:35:05.488Z,97624.89
2017-12-11T01:37:31.292Z,97630.28
2017-12-11T01:39:57.103Z,97628.41
2017-12-11T01:42:23.075Z,97628.95
2017-12-11T01:44:48.898Z,97619.44
2017-12-11T01:47:14.702Z,97615.28
2017-12-11T01:49:40.480Z,97621.88
2017-12-11T01:52:06.256Z,97624.57
2017-12-11T01:54:32.025Z,97622.27
2017-12-11T01:56:58.097Z,97623.85
2017-12-11T01:59:23.908Z,97633.94
2017-12-11T02:01:49.799Z,97635.11
2017-12-11T02:04:15.588Z,97634.33
2017-12-11T02:06:41.375Z,97632.73
2017-12-11T02:09:07.287Z,97641.11
2017-12-11T02:11:33.099Z,97631.30
2017-12-11T02:13:58.936Z,97631.52
2017-12-11T02:16:24.730Z,97637.76
2017-12-11T02:18:50.544Z,97644.56
2017-12-11T02:21:16.363Z,97640.63
2017-12-11T02:23:42.191Z,97643.30
2017-12-11T02:26:08.003Z,97651.13
2017-12-11T02:28:33.820Z,97649.20
2017-12-11T02:30:59.633Z,97647.47
2017-12-11T02:33:25.508Z,97647.27
2017-12-11T02:35:51.283Z,97656.23
2017-12-11T02:38:17.103Z,97660.32
2017-12-11T02:40:42.884Z,97663.05
2017-12-11T02:43:08.668Z,97645.08
2017-12-11T02:45:34.467Z,97650.87
2017-12-11T02:48:00.449Z,97650.81
2017-12-11T02:50:26.225Z,97648.62
2017-12-11T02:52:52.044Z,97644.14
2017-12-11T02:55:17.826Z,97644.25
2017-12-11T02:57:43.606Z,97648.67
2017-12-11T03:00:09.388Z,97649.30
2017-12-11T03:02:35.196Z,97657.34
2017-12-11T03:05:00.968Z,97660.88
2017-12-11T03:07:26.752Z,97653.63
2017-12-11T03:09:52.680Z,97650.29
2017-12-11T03:12:18.455Z,97664.35
2017-12-11T03:14:44.220Z,97657.25
2017-12-11T03:17:10.000Z,97656.55
2017-12-11T03:19:35.782Z,97656.32
2017-12-11T03:22:01.774Z,97652.25
2017-12-11T03:24:27.556Z,97651.68
2017-12-11T03:26:53.348Z,97656.41
2017-12-11T03:29:19.161Z,97668.09
2017-12-11T03:31:44.953Z,97662.00
2017-12-11T03:34:10.731Z,97663.34
2017-12-11T03:36:36.552Z,97664.75
2017-12-11T03:39:02.340Z,97672.33
2017-12-11T03:41:28.116Z,97674.20
2017-12-11T03:43:53.894Z,97684.00
2017-12-11T03:46:19.671Z,97692.45
2017-12-11T03:48:45.472Z,97690.21
2017-12-11T03:51:11.256Z,97705.04
2017-12-11T03:53:37.028Z,97698.83
2017-12-11T03:56:02.948Z,97698.72
2017-12-11T03:58:28.732Z,97707.00
2017-12-11T04:00:54.506Z,97712.11
2017-12-11T04:03:20.293Z,97728.09
2017-12-11T04:05:46.103Z,97747.63
2017-12-11T04:08:12.063Z,97746.15
2017-12-11T04:10:37.843Z,97751.23
2017-12-11T04:13:03.627Z,97760.21
2017-12-11T04:15:29.399Z,97777.12
2017-12-11T04:17:55.340Z,97783.59
2017-12-11T04:20:21.146Z,97798.76
2017-12-11T04:22:46.924Z,97809.58
2017-12-11T04:25:12.732Z,97827.65
2017-12-11T04:27:38.507Z,97837.73
2017-12-11T04:30:04.359Z,97848.92
2017-12-11T04:32:30.177Z,97870.92
2017-12-11T04:34:55.972Z,97885.34
2017-12-11T04:37:21.787Z,97888.35
2017-12-11T04:39:47.563Z,97897.97
2017-12-11T04:42:13.347Z,97913.03
2017-12-11T04:44:39.124Z,97915.63
2017-12-11T04:47:04.956Z,97920.17
2017-12-11T04:49:30.736Z,97937.23
2017-12-11T04:51:56.511Z,97943.69
2017-12-11T04:54:22.456Z,97948.59
2017-12-11T04:56:48.273Z,97956.38
2017-12-11T04:59:14.067Z,97963.30
2017-12-11T05:01:39.887Z,97982.28
2017-12-11T05:04:05.664Z,97992.39
2017-12-11T05:06:31.472Z,97996.03
2017-12-11T05:08:57.248Z,97996.60
2017-12-11T05:11:23.048Z,98003.00
2017-12-11T05:13:48.869Z,97987.80
2017-12-11T05:16:14.648Z,97994.84
2017-12-11T05:18:40.456Z,97999.81
2017-12-11T05:21:06.240Z,98008.68
2017-12-11T05:23:32.065Z,98008.12
2017-12-11T05:25:57.867Z,98007.98
2017-12-11T05:28:23.652Z,98018.84
2017-12-11T05:30:49.429Z,98027.41
2017-12-11T05:33:15.351Z,98018.58
2017-12-11T05:35:41.136Z,98026.20
2017-12-11T05:38:06.923Z,98030.84
2017-12-11T05:40:32.749Z,98039.24
2017-12-11T05:42:58.593Z,98044.17
2017-12-11T05:45:24.379Z,98045.68
2017-12-11T05:47:50.321Z,98047.22
2017-12-11T05:50:17.868Z,98048.48
2017-12-11T05:52:43.784Z,98053.11
2017-12-11T05:55:09.583Z,98051.84
2017-12-11T05:57:35.487Z,98057.48
2017-12-11T06:00:01.403Z,98068.77
2017-12-11T06:02:27.321Z,98072.25
2017-12-11T06:04:53.123Z,98076.77
2017-12-11T06:07:19.735Z,98073.45
2017-12-11T06:09:45.695Z,98081.97
2017-12-11T06:12:11.643Z,98085.05
2017-12-11T06:14:37.487Z,98094.25
2017-12-11T06:17:03.402Z,98095.47
2017-12-11T06:19:29.207Z,98091.44
2017-12-11T06:21:55.113Z,98080.84
2017-12-11T06:24:21.060Z,98093.33
2017-12-11T06:26:46.853Z,98087.33
2017-12-11T06:29:12.637Z,98091.28
2017-12-11T06:31:39.105Z,98101.76
2017-12-11T06:34:04.891Z,98120.19
2017-12-11T06:36:30.884Z,98124.81
2017-12-11T06:38:56.808Z,98127.63
2017-12-11T06:41:22.627Z,98132.05
2017-12-11T06:43:48.421Z,98140.03
2017-12-11T06:46:14.212Z,98143.33
2017-12-11T06:48:40.000Z,98150.84
2017-12-11T06:51:05.792Z,98169.02
2017-12-11T06:53:31.581Z,98175.92
2017-12-11T06:55:57.365Z,98183.70
2017-12-11T06:58:23.320Z,98182.73
2017-12-11T07:00:49.139Z,98186.47
2017-12-11T07:03:14.925Z,98194.75
2017-12-11T07:05:40.704Z,98199.67
2017-12-11T07:08:06.503Z,98211.81
2017-12-11T07:10:32.312Z,98205.41
2017-12-11T07:12:58.091Z,98202.55
2017-12-11T07:15:23.921Z,98186.28
2017-12-11T07:17:49.727Z,98193.79
2017-12-11T07:20:15.525Z,98193.98
2017-12-11T07:22:41.307Z,98200.83
2017-12-11T07:25:07.091Z,98210.83
2017-12-11T07:27:32.876Z,98220.02
2017-12-11T07:29:58.673Z,98229.62
2017-12-11T07:32:24.487Z,98231.63
2017-12-11T07:34:50.352Z,98226.91
2017-12-11T07:37:16.153Z,98236.56
2017-12-11T07:39:41.960Z,98248.69
2017-12-11T07:42:07.748Z,98249.52
2017-12-11T07:44:33.740Z,98245.58
2017-12-11T07:46:59.527Z,98247.77
2017-12-11T07:49:25.309Z,98256.23
2017-12-11T07:51:51.128Z,98253.45
2017-12-11T07:54:16.914Z,98251.45
2017-12-11T07:56:42.735Z,98261.48
2017-12-11T07:59:08.525Z,98267.44
2017-12-11T08:01:34.315Z,98266.06
2017-12-11T08:04:00.104Z,98274.95
2017-12-11T08:06:25.922Z,98273.26
2017-12-11T08:08:51.704Z,98268.34
2017-12-11T08:11:17.542Z,98284.55
2017-12-11T08:13:43.391Z,98280.58
2017-12-11T08:16:09.189Z,98277.89
2017-12-11T08:18:34.974Z,98276.03
2017-12-11T08:21:00.752Z,98278.94
2017-12-11T08:23:26.543Z,98277.63
2017-12-11T08:25:52.371Z,98274.38
2017-12-11T08:28:18.167Z,98280.77
2017-12-11T08:30:44.073Z,98288.90
2017-12-11T08:33:09.995Z,98285.72
2017-12-11T08:35:35.822Z,98294.09
2017-12-11T08:38:01.641Z,98295.65
2017-12-11T08:40:27.459Z,98284.09
2017-12-11T08:42:53.376Z,98268.70
2017-12-11T08:45:19.168Z,98270.98
2017-12-11T08:47:45.124Z,98259.41
2017-12-11T08:50:11.081Z,98250.55
2017-12-11T08:52:36.958Z,98266.30
2017-12-11T08:55:02.876Z,98269.99
2017-12-11T08:57:28.661Z,98273.00
2017-12-11T08:59:54.618Z,98280.45
2017-12-11T09:02:20.817Z,98279.72
2017-12-11T09:04:46.627Z,98286.65
2017-12-11T09:07:12.427Z,98301.87
2017-12-11T09:09:39.072Z,98306.03
2017-12-11T09:12:04.852Z,98306.84
2017-12-11T09:14:30.640Z,98312.61
2017-12-11T09:16:56.419Z,98308.91
2017-12-11T09:19:22.201Z,98323.48
2017-12-11T09:21:47.980Z,98335.03
2017-12-11T09:24:13.840Z,98342.38
2017-12-11T09:26:39.624Z,98347.17
2017-12-11T09:29:05.444Z,98354.59
2017-12-11T09:31:31.232Z,98362.83
2017-12-11T09:33:57.015Z,98373.45
2017-12-11T09:36:22.824Z,98376.73
2017-12-11T09:38:48.616Z,98369.93
2017-12-11T09:41:14.409Z,98385.73
2017-12-11T09:43:40.189Z,98366.56
2017-12-11T09:46:06.119Z,98367.59
2017-12-11T09:48:31.909Z,98364.11
2017-12-11T09:50:57.728Z,98356.07
2017-12-11T09:53:25.744Z,98351.80
2017-12-11T09:55:51.567Z,98341.12
2017-12-11T09:58:17.397Z,98339.33
2017-12-11T10:00:43.212Z,98335.09
2017-12-11T10:03:09.032Z,98322.64
2017-12-11T10:05:34.832Z,98310.17
2017-12-11T10:08:00.754Z,98310.80
2017-12-11T10:10:28.301Z,98331.48
2017-12-11T10:12:54.082Z,98317.02
2017-12-11T10:15:19.907Z,98304.62
2017-12-11T10:17:45.812Z,98304.25
2017-12-11T10:20:11.744Z,98291.50
2017-12-11T10:22:37.551Z,98285.87
2017-12-11T10:25:03.360Z,98297.10
2017-12-11T10:27:29.155Z,98292.97
2017-12-11T10:29:54.969Z,98290.12
2017-12-11T10:32:20.747Z,98283.08
2017-12-11T10:34:46.524Z,98286.61
2017-12-11T10:37:12.304Z,98285.49
2017-12-11T10:39:38.088Z,98290.88
2017-12-11T10:42:03.865Z,98304.14
2017-12-11T10:44:29.728Z,98308.30
2017-12-11T10:46:55.513Z,98297.53
2017-12-11T10:49:21.319Z,98295.89
2017-12-11T10:51:47.132Z,98296.26
2017-12-11T10:54:12.956Z,98295.19
2017-12-11T10:56:38.744Z,98299.67
2017-12-11T10:59:04.544Z,98276.37
2017-12-11T11:01:30.319Z,98270.17
2017-12-11T11:03:56.198Z,98285.95
2017-12-11T11:06:22.000Z,98298.00
2017-12-11T11:08:47.786Z,98290.97
2017-12-11T11:11:13.579Z,98277.36
2017-12-11T11:13:40.292Z,98279.05
2017-12-11T11:16:09.191Z,98283.37
2017-12-11T11:18:35.204Z,98295.69
2017-12-11T11:21:01.100Z,98292.20
2017-12-11T11:23:26.937Z,98292.17
2017-12-11T11:25:52.745Z,98277.72
2017-12-11T11:28:18.581Z,98274.02
2017-12-11T11:30:46.921Z,98276.55
2017-12-11T11:33:14.125Z,98274.62
2017-12-11T11:35:42.763Z,98255.58
2017-12-11T11:38:12.129Z,98257.09
2017-12-11T11:40:44.620Z,98264.88
2017-12-11T11:43:37.969Z,98263.98
2017-12-11T11:46:11.311Z,98273.70
2017-12-11T11:48:43.406Z,98264.89
2017-12-11T11:51:15.713Z,98238.66
2017-12-11T11:53:46.400Z,98214.11
2017-12-11T11:56:14.516Z,98234.71
2017-12-11T11:58:40.317Z,98224.96
2017-12-11T12:01:06.888Z,98220.78
2017-12-11T12:03:33.639Z,98225.83
2017-12-11T12:05:59.488Z,98224.41
2017-12-11T12:08:26.407Z,98217.77
2017-12-11T12:10:53.010Z,98211.47
2017-12-11T12:13:19.080Z,98203.68
2017-12-11T12:15:44.920Z,98210.86
2017-12-11T12:18:10.708Z,98208.81
2017-12-11T12:20:36.691Z,98197.48
2017-12-11T12:23:02.495Z,98210.64
2017-12-11T12:25:29.112Z,98209.72
2017-12-11T12:27:54.892Z,98192.41
2017-12-11T12:30:20.700Z,98192.63
2017-12-11T12:32:46.491Z,98198.01
2017-12-11T12:35:15.164Z,98200.91
2017-12-11T12:37:42.002Z,98180.58
2017-12-11T12:40:07.792Z,98178.95
2017-12-11T12:42:33.722Z,98192.51
2017-12-11T12:45:01.461Z,98186.92
2017-12-11T12:47:29.872Z,98193.63
2017-12-11T12:49:55.754Z,98193.12
2017-12-11T12:52:22.779Z,98199.06
2017-12-11T12:54:48.617Z,98199.73
2017-12-11T12:57:14.413Z,98196.98
2017-12-11T12:59:40.195Z,98195.60
2017-12-11T13:02:05.972Z,98199.17
2017-12-11T13:04:31.748Z,98186.34
2017-12-11T13:06:57.539Z,98184.30
2017-12-11T13:09:24.018Z,98181.16
2017-12-11T13:11:49.889Z,98173.38
2017-12-11T13:14:15.777Z,98168.19
2017-12-11T13:16:41.836Z,98157.83
2017-12-11T13:19:08.002Z,98155.95
2017-12-11T13:21:34.981Z,98153.68
2017-12-11T13:24:24.987Z,98156.44
2017-12-11T13:27:01.235Z,98127.59
2017-12-11T13:29:29.273Z,98121.56
2017-12-11T13:31:56.287Z,98123.33
2017-12-11T13:34:25.564Z,98121.19
2017-12-11T13:36:53.548Z,98120.85
2017-12-11T13:39:20.168Z,98120.55
2017-12-11T13:41:47.600Z,98108.92
2017-12-11T13:44:13.390Z,98097.42
2017-12-11T13:46:43.083Z,98095.96
2017-12-11T13:49:12.873Z,98096.91
2017-12-11T13:51:39.383Z,98093.98
2017-12-11T13:54:06.378Z,98092.80
2017-12-11T13:56:32.706Z,98079.20
2017-12-11T13:58:59.207Z,98073.06
2017-12-11T14:01:25.669Z,98069.20
2017-12-11T14:04:12.832Z,98076.38
2017-12-11T14:06:42.953Z,98076.45
2017-12-11T14:09:13.275Z,98077.67
2017-12-11T14:11:43.368Z,98064.28
2017-12-11T14:14:14.406Z,98056.78
2017-12-11T14:16:43.365Z,98045.55
2017-12-11T14:19:11.393Z,98042.61
2017-12-11T14:21:37.241Z,98036.36
2017-12-11T14:24:03.189Z,98039.05
2017-12-11T14:26:28.994Z,98047.05
2017-12-11T14:28:54.892Z,98041.31
2017-12-11T14:31:20.889Z,98042.03
2017-12-11T14:33:46.745Z,98035.59
2017-12-11T14:36:12.700Z,98042.45
2017-12-11T14:38:38.552Z,98046.34
2017-12-11T14:41:04.332Z,98035.26
2017-12-11T14:43:30.181Z,98027.03
2017-12-11T14:45:56.026Z,98018.00
2017-12-11T14:48:21.808Z,98026.34
2017-12-11T14:50:47.630Z,98023.00
2017-12-11T14:53:13.417Z,98016.27
2017-12-11T14:55:39.203Z,98016.97
2017-12-11T14:58:04.991Z,98019.41
2017-12-11T15:00:30.801Z,98037.55
2017-12-11T15:02:56.633Z,98044.60
2017-12-11T15:05:22.460Z,98043.98
2017-12-11T15:07:48.247Z,98046.30
2017-12-11T15:10:14.042Z,98049.63
2017-12-11T15:12:39.838Z,98050.33
2017-12-11T15:15:05.622Z,98041.39
2017-12-11T15:17:31.401Z,98036.20
2017-12-11T15:19:57.395Z,98033.84
2017-12-11T15:22:23.201Z,98030.11
2017-12-11T15:24:48.990Z,98032.29
2017-12-11T15:27:14.832Z,98026.95
2017-12-11T15:29:40.619Z,98012.79
2017-12-11T15:32:06.446Z,98016.80
2017-12-11T15:34:32.292Z,98018.98
2017-12-11T15:36:58.088Z,98020.11
2017-12-11T15:39:23.892Z,98016.15
2017-12-11T15:41:49.737Z,98011.67
2017-12-11T15:44:15.533Z,98011.81
2017-12-11T15:46:41.329Z,98011.53
2017-12-11T15:49:07.126Z,98003.30
2017-12-11T15:51:32.954Z,98006.45
2017-12-11T15:53:58.895Z,98007.34
2017-12-11T15:56:24.685Z,98005.25
2017-12-11T15:58:50.553Z,97994.95
2017-12-11T16:01:16.366Z,97998.16
2017-12-11T16:03:42.207Z,98003.84
2017-12-11T16:06:08.004Z,97999.28
2017-12-11T16:08:33.791Z,98007.14
2017-12-11T16:10:59.590Z,98009.07
2017-12-11T16:13:25.402Z,98007.65
2017-12-11T16:15:51.215Z,98004.25
2017-12-11T16:18:17.028Z,98017.28
2017-12-11T16:20:42.868Z,98024.64
2017-12-11T16:23:08.696Z,98020.61
2017-12-11T16:25:34.489Z,98021.46
2017-12-11T16:28:00.320Z,98028.09
2017-12-11T16:30:26.169Z,98018.34
2017-12-11T16:32:52.024Z,98025.57
2017-12-11T16:35:17.810Z,98021.27
2017-12-11T16:37:43.735Z,98022.23
2017-12-11T16:40:09.528Z,98024.12
2017-12-11T16:42:35.316Z,98013.20
2017-12-11T16:45:01.098Z,98015.12
2017-12-11T16:47:26.891Z,98027.91
2017-12-11T16:49:52.673Z,98018.27
2017-12-11T16:52:18.476Z,98019.28
2017-12-11T16:54:44.273Z,98008.41
2017-12-11T16:57:10.095Z,98001.03
2017-12-11T16:59:35.896Z,98002.93
2017-12-11T17:02:01.744Z,98009.98
2017-12-11T17:04:27.537Z,98014.38
2017-12-11T17:06:53.324Z,98005.82
2017-12-11T17:11:52.936Z,98009.84
2017-12-11T17:14:18.724Z,98015.05
2017-12-11T17:16:45.497Z,98017.63
2017-12-11T17:19:11.361Z,98030.40
2017-12-11T17:21:37.168Z,98023.73
2017-12-11T17:24:02.955Z,98019.02
2017-12-11T17:26:28.921Z,98019.84
2017-12-11T17:28:54.713Z,98017.02
2017-12-11T17:31:20.705Z,98011.63
2017-12-11T17:33:46.495Z,98006.45
2017-12-11T17:36:13.498Z,97996.73
2017-12-11T17:38:39.289Z,97992.34
2017-12-11T17:41:05.077Z,97991.63
2017-12-11T17:43:30.871Z,97995.55
2017-12-11T17:45:56.699Z,97978.66
2017-12-11T17:48:22.485Z,97982.18
2017-12-11T17:50:48.259Z,97982.52
2017-12-11T17:53:14.234Z,97985.70
2017-12-11T17:55:40.011Z,97980.02
2017-12-11T17:58:05.799Z,97971.48
2017-12-11T18:00:31.585Z,97984.96
2017-12-11T18:02:57.366Z,97994.57
2017-12-11T18:05:23.151Z,97986.86
2017-12-11T18:07:48.937Z,97992.55
2017-12-11T18:10:14.725Z,98007.89
2017-12-11T18:12:40.501Z,98011.09
2017-12-11T18:15:06.291Z,98014.30
2017-12-11T18:17:32.080Z,98015.23
2017-12-11T18:19:57.905Z,98003.34
2017-12-11T18:22:23.692Z,97997.59
2017-12-11T18:24:49.498Z,97994.84
2017-12-11T18:27:15.288Z,98002.02
2017-12-11T18:29:41.065Z,98002.49
2017-12-11T18:32:06.849Z,97994.70
2017-12-11T18:34:32.705Z,98000.27
2017-12-11T18:36:58.500Z,98023.38
2017-12-11T18:39:24.287Z,98039.12
2017-12-11T18:41:50.078Z,98032.19
2017-12-11T18:44:15.899Z,98029.45
2017-12-11T18:46:42.049Z,98030.50
2017-12-11T18:49:08.000Z,98030.17
2017-12-11T18:51:35.553Z,98020.85
2017-12-11T18:54:01.826Z,98021.84
2017-12-11T18:56:27.842Z,98012.25
2017-12-11T18:58:53.692Z,98002.16
2017-12-11T19:01:22.493Z,98003.04
2017-12-11T19:03:48.390Z,98006.30
2017-12-11T19:06:14.276Z,98012.02
2017-12-11T19:08:40.119Z,98009.84
2017-12-11T19:11:05.958Z,98003.00
2017-12-11T19:13:33.126Z,98005.88
2017-12-11T19:15:58.925Z,98000.88
2017-12-11T19:18:24.821Z,98005.20
2017-12-11T19:20:50.698Z,98008.59
2017-12-11T19:23:16.512Z,98012.48
2017-12-11T19:25:42.941Z,98012.31
2017-12-11T19:28:08.760Z,98017.40
2017-12-11T19:30:34.577Z,98015.13
2017-12-11T19:33:01.889Z,98012.59
2017-12-11T19:35:27.724Z,98011.95
2017-12-11T19:37:53.536Z,98017.13
2017-12-11T19:40:19.448Z,98016.52
2017-12-11T19:42:45.311Z,98021.23
2017-12-11T19:45:11.131Z,98013.78
2017-12-11T19:47:36.966Z,98016.18
2017-12-11T19:50:02.848Z,98008.94
2017-12-11T19:52:28.826Z,98013.47
2017-12-11T19:54:54.715Z,98028.61
2017-12-11T19:57:20.645Z,98013.47
2017-12-11T19:59:46.641Z,98007.89
2017-12-11T20:02:12.564Z,98013.78
2017-12-11T20:04:38.405Z,98038.84
2017-12-11T20:07:05.501Z,98039.27
2017-12-11T20:09:32.178Z,98015.84
2017-12-11T20:11:58.014Z,98029.52
2017-12-11T20:14:23.809Z,98016.22
2017-12-11T20:16:50.916Z,98006.80
2017-12-11T20:19:16.944Z,97991.50
2017-12-11T20:21:42.971Z,97994.95
2017-12-11T20:24:08.776Z,97999.15
2017-12-11T20:26:34.908Z,97993.87
2017-12-11T20:29:00.693Z,97990.72
2017-12-11T20:31:26.482Z,97997.86
2017-12-11T20:33:53.330Z,97997.55
2017-12-11T20:36:19.142Z,98004.40
2017-12-11T20:38:46.131Z,97998.77
2017-12-11T20:41:11.956Z,97979.06
2017-12-11T20:43:38.292Z,97991.63
2017-12-11T20:46:04.265Z,98006.67
2017-12-11T20:48:30.258Z,98014.49
2017-12-11T20:50:56.206Z,98022.42
2017-12-11T20:53:22.120Z,98029.77
2017-12-11T20:55:52.107Z,98022.25
2017-12-11T20:58:19.237Z,98001.76
2017-12-11T21:00:45.042Z,98000.00
2017-12-11T21:03:12.239Z,98005.41
2017-12-11T21:05:38.043Z,98032.14
2017-12-11T21:08:03.817Z,98039.15
2017-12-11T21:10:31.036Z,98033.39
2017-12-11T21:12:56.898Z,98025.77
2017-12-11T21:15:24.440Z,98034.87
2017-12-11T21:17:50.232Z,98037.02
2017-12-11T21:20:21.560Z,98049.30
2017-12-11T21:22:48.774Z,98044.19
2017-12-11T21:25:14.580Z,98046.30
2017-12-11T21:27:40.800Z,98052.39
2017-12-11T21:30:06.829Z,98044.27
2017-12-11T21:32:32.623Z,98042.16
2017-12-11T21:34:58.512Z,98053.17
2017-12-11T21:37:24.941Z,98059.88
2017-12-11T21:39:50.731Z,98071.86
2017-12-11T21:42:18.233Z,98085.31
2017-12-11T21:44:44.060Z,98110.41
2017-12-11T21:47:09.836Z,98110.77
2017-12-11T21:49:36.132Z,98121.80
2017-12-11T21:52:01.917Z,98129.41
2017-12-11T21:54:27.718Z,98125.75
2017-12-11T21:56:54.977Z,98123.20
2017-12-11T21:59:20.824Z,98134.94
2017-12-11T22:01:46.727Z,98131.34
2017-12-11T22:04:13.672Z,98130.28
2017-12-11T22:06:39.485Z,98140.29
2017-12-11T22:09:07.237Z,98151.82
2017-12-11T22:11:33.044Z,98138.92
2017-12-11T22:13:59.089Z,98136.01
2017-12-11T22:16:25.021Z,98127.13
2017-12-11T22:18:50.954Z,98130.12
2017-12-11T22:21:16.813Z,98132.84
2017-12-11T22:23:42.611Z,98128.47
2017-12-11T22:26:08.539Z,98136.09
2017-12-11T22:28:34.322Z,98132.83
2017-12-11T22:31:00.157Z,98140.45
2017-12-11T22:33:26.215Z,98139.02
2017-12-11T22:35:52.068Z,98135.27
2017-12-11T22:38:17.849Z,98130.61
2017-12-11T22:40:43.729Z,98136.86
2017-12-11T22:43:09.679Z,98134.34
2017-12-11T22:45:35.508Z,98133.23
2017-12-11T22:48:01.756Z,98136.78
2017-12-11T22:50:27.684Z,98140.23
2017-12-11T22:52:53.493Z,98150.28
2017-12-11T22:55:19.297Z,98151.30
2017-12-11T22:57:45.110Z,98159.94
2017-12-11T23:00:10.930Z,98161.88
2017-12-11T23:02:36.741Z,98155.17
2017-12-11T23:05:02.527Z,98154.16
2017-12-11T23:07:28.376Z,98157.37
2017-12-11T23:09:54.157Z,98166.23
2017-12-11T23:12:19.932Z,98179.91
2017-12-11T23:14:45.719Z,98179.61
2017-12-11T23:17:11.513Z,98170.00
2017-12-11T23:19:37.350Z,98173.66
2017-12-11T23:22:03.132Z,98171.44
2017-12-11T23:24:28.947Z,98159.28
2017-12-11T23:26:54.720Z,98167.06
2017-12-11T23:29:20.512Z,98164.16
2017-12-11T23:31:46.291Z,98179.36
2017-12-11T23:34:12.107Z,98179.01
2017-12-11T23:36:37.896Z,98180.82
2017-12-11T23:39:03.724Z,98190.53
2017-12-11T23:41:29.512Z,98191.29
2017-12-11T23:43:55.329Z,98200.69
2017-12-11T23:46:21.144Z,98195.60
2017-12-11T23:48:46.920Z,98189.22
2017-12-11T23:51:12.727Z,98190.55
2017-12-11T23:53:38.520Z,98193.31
2017-12-11T23:56:04.341Z,98199.11
2017-12-11T23:58:30.132Z,98193.78
